Time;durP1;ratioP1;P1;durP2;ratioP2;P2;SDS_P1;SDS_P2;PMS_P1;PMS_P2;Temp;Humidity;BMP_temperature;BMP_pressure;BME280_temperature;BME280_humidity;BME280_pressure;Samples;Min_cycle;Max_cycle;Signal;HPM_P1;HPM_P2
2022/11/04 00:01:19;;;;;;;5.35;3.33;;;12.00;86.30;;;;;;4989704;28;20414;-52
2022/11/04 00:03:44;;;;;;;6.77;3.30;;;12.00;85.90;;;;;;4983863;28;20038;-47
2022/11/04 00:06:10;;;;;;;8.17;3.40;;;11.90;86.80;;;;;;4992031;28;20476;-51
2022/11/04 00:08:36;;;;;;;6.57;3.23;;;11.90;86.20;;;;;;4991832;28;20027;-54
2022/11/04 00:13:46;;;;;;;8.50;3.30;;;11.80;86.00;;;;;;4985257;28;20085;-52
2022/11/04 00:18:59;;;;;;;7.05;3.22;;;11.70;85.00;;;;;;4990012;28;20085;-50
2022/11/04 00:29:39;;;;;;;10.20;3.15;;;11.60;84.90;;;;;;4990317;28;20144;-50
2022/11/04 00:35:06;;;;;;;9.88;3.53;;;11.60;85.00;;;;;;4986129;28;20072;-52
2022/11/04 00:37:35;;;;;;;10.57;4.15;;;11.50;85.30;;;;;;4984153;28;20046;-50
2022/11/04 00:40:01;;;;;;;5.55;3.42;;;11.50;85.30;;;;;;4991234;28;20209;-49
2022/11/04 00:42:27;;;;;;;11.07;3.30;;;11.50;85.20;;;;;;4994973;28;20492;-47
2022/11/04 00:44:52;;;;;;;6.63;3.40;;;11.50;85.00;;;;;;4987183;28;20034;-51
2022/11/04 00:47:18;;;;;;;10.17;3.60;;;11.40;85.20;;;;;;4994484;28;20452;-52
2022/11/04 00:49:43;;;;;;;10.10;3.30;;;11.40;85.60;;;;;;4988182;28;20037;-50
2022/11/04 00:52:09;;;;;;;5.47;3.00;;;11.40;85.60;;;;;;4993887;28;20178;-51
2022/11/04 00:54:34;;;;;;;7.47;3.33;;;11.40;85.90;;;;;;4987749;28;20049;-56
2022/11/04 00:57:00;;;;;;;6.03;3.00;;;11.40;85.70;;;;;;4988469;28;20026;-58
2022/11/04 00:59:26;;;;;;;10.80;3.97;;;11.50;85.80;;;;;;4989470;28;20108;-50
2022/11/04 01:01:51;;;;;;;6.63;3.97;;;11.40;85.50;;;;;;4993496;28;20038;-55
2022/11/04 01:04:17;;;;;;;12.07;3.13;;;11.40;85.60;;;;;;4981573;28;20037;-50
2022/11/04 01:06:42;;;;;;;5.97;2.90;;;11.30;85.60;;;;;;4988848;28;20038;-57
2022/11/04 01:09:11;;;;;;;7.47;3.17;;;11.30;85.90;;;;;;4990820;28;20151;-54
2022/11/04 01:11:36;;;;;;;5.40;2.95;;;11.20;85.80;;;;;;4989795;28;20034;-56
2022/11/04 01:14:03;;;;;;;8.27;3.50;;;11.20;85.90;;;;;;4994574;28;20046;-54
2022/11/04 01:16:29;;;;;;;5.63;3.20;;;11.20;86.00;;;;;;4989913;28;20053;-50
2022/11/04 01:18:54;;;;;;;7.07;4.63;;;11.10;86.10;;;;;;4990204;28;20034;-51
2022/11/04 01:21:20;;;;;;;5.13;3.60;;;11.00;86.30;;;;;;4988482;28;20157;-50
2022/11/04 01:23:46;;;;;;;17.53;4.57;;;11.00;86.40;;;;;;4986758;28;20034;-52
2022/11/04 01:26:14;;;;;;;5.50;3.67;;;11.00;86.60;;;;;;4987179;28;20030;-54
2022/11/04 01:28:40;;;;;;;9.35;3.65;;;10.90;86.50;;;;;;4993726;28;20034;-55
2022/11/04 01:31:07;;;;;;;7.83;3.23;;;10.90;86.70;;;;;;4990788;28;20860;-52
2022/11/04 01:33:33;;;;;;;9.30;3.92;;;10.90;86.70;;;;;;4987806;28;20037;-55
2022/11/04 01:35:59;;;;;;;10.37;5.47;;;10.90;86.70;;;;;;4986487;28;20046;-49
2022/11/04 01:38:25;;;;;;;6.18;3.63;;;10.90;86.70;;;;;;4989743;28;20513;-54
2022/11/04 01:40:51;;;;;;;9.03;4.33;;;11.00;86.70;;;;;;4991504;28;20117;-52
2022/11/04 01:43:19;;;;;;;8.30;3.87;;;11.00;86.70;;;;;;4984607;28;20022;-53
2022/11/04 01:45:57;;;;;;;12.20;5.18;;;10.90;87.20;;;;;;4987275;28;20030;-47
2022/11/04 01:48:31;;;;;;;8.48;4.00;;;10.90;87.20;;;;;;4991721;28;20060;-51
2022/11/04 01:50:59;;;;;;;5.78;3.65;;;10.90;87.30;;;;;;4986993;28;20479;-53
2022/11/04 01:53:31;;;;;;;8.25;3.97;;;10.80;87.50;;;;;;4985013;28;20145;-51
2022/11/04 01:56:01;;;;;;;6.25;4.00;;;10.80;87.40;;;;;;4989057;28;20023;-51
2022/11/04 01:58:33;;;;;;;6.97;4.00;;;10.70;87.40;;;;;;4989851;28;20038;-51
2022/11/04 02:01:00;;;;;;;7.22;3.90;;;10.80;87.10;;;;;;4991932;28;20064;-54
2022/11/04 02:03:32;;;;;;;9.95;4.60;;;10.80;87.10;;;;;;4987792;28;20035;-51
2022/11/04 02:05:59;;;;;;;8.05;3.97;;;10.80;87.30;;;;;;4992068;28;20045;-53
2022/11/04 02:08:25;;;;;;;8.13;4.25;;;10.70;87.30;;;;;;4995715;28;20529;-51
2022/11/04 02:11:08;;;;;;;12.85;4.93;;;10.70;87.00;;;;;;4983466;28;20506;-51
2022/11/04 02:13:36;;;;;;;5.60;3.08;;;10.70;86.90;;;;;;4988130;28;20092;-52
2022/11/04 02:16:20;;;;;;;6.65;3.03;;;10.80;86.70;;;;;;4986764;28;20081;-51
2022/11/04 02:18:54;;;;;;;5.25;3.50;;;10.80;86.10;;;;;;4991267;28;20088;-49
2022/11/04 02:21:54;;;;;;;5.75;2.75;;;10.80;85.80;;;;;;4985831;28;20038;-51
2022/11/04 02:24:28;;;;;;;6.32;2.88;;;10.80;85.60;;;;;;4984287;28;20030;-55
2022/11/04 02:26:54;;;;;;;7.50;3.47;;;10.80;85.40;;;;;;4987800;28;20058;-52
2022/11/04 02:29:54;;;;;;;8.43;2.87;;;10.80;85.20;;;;;;4982361;28;20561;-53
2022/11/04 02:32:47;;;;;;;5.53;3.10;;;10.80;85.20;;;;;;4988092;28;20170;-59
2022/11/04 02:35:25;;;;;;;6.20;2.70;;;10.80;85.20;;;;;;4988837;28;20030;-57
2022/11/04 02:38:22;;;;;;;5.85;3.58;;;10.80;84.80;;;;;;4993700;28;20146;-58
2022/11/04 02:40:59;;;;;;;4.95;2.33;;;10.80;84.90;;;;;;4991540;28;20416;-55
2022/11/04 02:43:47;;;;;;;5.57;2.50;;;10.70;84.90;;;;;;4988169;28;20557;-52
2022/11/04 02:46:35;;;;;;;8.52;2.20;;;10.70;84.70;;;;;;4986341;28;20031;-55
2022/11/04 02:49:11;;;;;;;4.53;2.30;;;10.70;84.70;;;;;;4982895;28;20467;-58
2022/11/04 02:51:47;;;;;;;5.20;2.53;;;10.70;84.70;;;;;;4984801;28;20080;-52
2022/11/04 02:54:24;;;;;;;4.43;2.47;;;10.60;84.90;;;;;;4995827;28;20042;-52
2022/11/04 02:56:53;;;;;;;3.75;2.28;;;10.60;85.30;;;;;;4998093;28;20501;-58
2022/11/04 02:59:27;;;;;;;14.48;2.60;;;10.50;85.10;;;;;;4990339;28;20030;-54
2022/11/04 03:01:55;;;;;;;5.50;2.28;;;10.50;85.40;;;;;;4995450;28;20423;-54
2022/11/04 03:04:29;;;;;;;4.28;2.70;;;10.50;85.10;;;;;;4988473;28;20041;-51
2022/11/04 03:06:56;;;;;;;7.95;3.25;;;10.50;84.90;;;;;;4989513;28;20410;-54
2022/11/04 03:09:24;;;;;;;4.38;2.65;;;10.50;84.70;;;;;;4992246;28;20490;-51
2022/11/04 03:11:55;;;;;;;5.10;2.97;;;10.50;84.60;;;;;;4981750;28;20048;-51
2022/11/04 03:14:43;;;;;;;5.15;3.17;;;10.50;84.50;;;;;;4982269;28;20038;-54
2022/11/04 03:17:18;;;;;;;6.55;2.80;;;10.40;85.20;;;;;;4985322;28;20056;-54
2022/11/04 03:19:57;;;;;;;5.13;2.67;;;10.40;84.80;;;;;;4986165;28;20039;-52
2022/11/04 03:22:26;;;;;;;4.18;2.40;;;10.40;84.60;;;;;;4983224;28;20022;-51
2022/11/04 03:24:53;;;;;;;3.30;2.40;;;10.40;84.40;;;;;;4987294;28;20503;-55
2022/11/04 03:27:25;;;;;;;7.30;2.63;;;10.50;84.30;;;;;;4992661;28;20026;-54
2022/11/04 03:30:00;;;;;;;7.80;3.47;;;10.50;84.30;;;;;;4988062;28;20052;-51
2022/11/04 03:32:57;;;;;;;5.63;2.60;;;10.50;84.30;;;;;;4988665;28;20403;-55
2022/11/04 03:35:23;;;;;;;6.70;3.25;;;10.40;84.20;;;;;;4988507;28;20042;-50
2022/11/04 03:37:49;;;;;;;7.85;3.22;;;10.40;84.40;;;;;;4985897;28;20042;-51
2022/11/04 03:40:17;;;;;;;9.47;3.50;;;10.40;84.30;;;;;;4984746;28;20026;-53
2022/11/04 03:42:55;;;;;;;7.18;3.15;;;10.40;84.30;;;;;;4990796;28;20026;-50
2022/11/04 03:45:22;;;;;;;10.13;3.70;;;10.40;84.20;;;;;;4982450;28;20077;-53
2022/11/04 03:47:49;;;;;;;4.38;3.40;;;10.30;84.10;;;;;;4986360;28;20816;-48
2022/11/04 03:50:18;;;;;;;4.47;2.95;;;10.30;84.00;;;;;;4983419;28;20076;-49
2022/11/04 03:52:44;;;;;;;5.35;3.03;;;10.30;84.00;;;;;;4988056;28;20030;-51
2022/11/04 03:55:11;;;;;;;5.40;2.67;;;10.30;84.00;;;;;;4988476;28;20037;-47
2022/11/04 03:57:53;;;;;;;9.65;2.60;;;10.10;83.70;;;;;;4983536;28;20022;-51
2022/11/04 04:00:21;;;;;;;10.43;2.53;;;10.20;84.30;;;;;;4986130;28;20034;-53
2022/11/04 04:02:58;;;;;;;5.32;2.83;;;10.20;84.20;;;;;;4989646;28;20101;-58
2022/11/04 04:05:32;;;;;;;;;;;10.20;84.30;;;;;;4985549;28;20031;-52
2022/11/04 04:08:27;;;;;;;4.88;2.03;;;10.10;84.30;;;;;;4980023;28;19913;-52
2022/11/04 04:11:27;;;;;;;6.93;2.10;;;10.10;84.10;;;;;;4968355;28;20042;-51
2022/11/04 04:14:38;;;;;;;5.03;2.15;;;10.10;84.00;;;;;;4991074;28;20034;-52
2022/11/04 04:17:15;;;;;;;5.25;2.58;;;10.10;84.00;;;;;;4983472;28;20038;-52
2022/11/04 04:20:21;;;;;;;3.08;2.28;;;10.10;84.30;;;;;;4990464;28;20522;-51
2022/11/04 04:22:55;;;;;;;7.35;2.40;;;10.00;84.70;;;;;;4967534;28;20041;-54
2022/11/04 04:28:11;;;;;;;7.63;2.58;;;10.10;84.30;;;;;;4978903;28;20049;-51
2022/11/04 04:30:40;;;;;;;3.33;1.90;;;10.10;84.00;;;;;;4988321;28;20451;-51
2022/11/04 04:33:10;;;;;;;11.70;1.90;;;10.10;84.00;;;;;;4989672;28;20101;-48
2022/11/04 04:35:43;;;;;;;7.20;2.28;;;10.00;84.20;;;;;;4994009;28;20042;-51
2022/11/04 04:47:06;;;;;;;3.72;1.73;;;9.90;83.80;;;;;;4990113;28;20169;-51
2022/11/04 04:49:33;;;;;;;2.28;1.45;;;9.90;84.10;;;;;;4987748;28;20033;-51
2022/11/04 04:52:02;;;;;;;4.18;1.30;;;9.90;84.10;;;;;;4994809;28;20038;-50
2022/11/04 04:54:27;;;;;;;7.03;1.77;;;9.90;83.70;;;;;;4994823;28;20105;-51
2022/11/04 04:56:53;;;;;;;6.95;1.70;;;9.90;83.80;;;;;;4987999;28;20034;-50
2022/11/04 04:59:19;;;;;;;6.87;1.80;;;9.90;83.90;;;;;;4985742;28;20132;-50
2022/11/04 05:01:44;;;;;;;7.07;2.27;;;9.90;83.80;;;;;;4993905;28;20030;-47
2022/11/04 05:04:10;;;;;;;3.70;1.87;;;9.80;84.10;;;;;;4989225;28;20094;-52
2022/11/04 05:06:36;;;;;;;5.50;2.47;;;9.90;83.90;;;;;;4989176;28;20105;-54
2022/11/04 05:09:01;;;;;;;4.87;2.20;;;9.80;83.50;;;;;;4990569;28;20038;-54
2022/11/04 05:11:27;;;;;;;4.00;2.17;;;9.80;83.40;;;;;;4990253;28;20088;-53
2022/11/04 05:13:52;;;;;;;3.87;1.97;;;9.80;83.50;;;;;;4985690;28;20067;-52
2022/11/04 05:16:18;;;;;;;4.67;2.00;;;9.80;83.80;;;;;;4986645;28;20062;-52
2022/11/04 05:18:44;;;;;;;4.33;1.77;;;9.80;83.90;;;;;;4989110;28;20037;-49
2022/11/04 05:21:12;;;;;;;4.20;2.00;;;9.80;83.80;;;;;;4989484;28;20027;-54
2022/11/04 05:23:37;;;;;;;6.32;1.98;;;9.80;83.70;;;;;;4988262;28;20025;-54
2022/11/04 05:26:03;;;;;;;5.03;2.03;;;9.80;83.90;;;;;;4978699;28;20031;-53
2022/11/04 05:28:29;;;;;;;5.05;1.83;;;9.90;83.40;;;;;;4987444;28;20034;-50
2022/11/04 05:30:55;;;;;;;3.72;1.60;;;9.80;84.00;;;;;;4991686;28;20034;-50
2022/11/04 05:33:21;;;;;;;7.50;1.90;;;9.90;84.10;;;;;;4988820;28;20118;-50
2022/11/04 05:35:46;;;;;;;5.63;1.67;;;9.80;84.10;;;;;;4990651;28;20061;-51
2022/11/04 05:38:12;;;;;;;6.40;1.53;;;9.90;83.90;;;;;;4983688;28;20066;-50
2022/11/04 05:40:38;;;;;;;5.10;1.60;;;9.90;83.90;;;;;;4987213;28;20089;-51
2022/11/04 05:43:03;;;;;;;6.60;1.40;;;10.00;83.80;;;;;;4990971;28;20056;-51
2022/11/04 05:45:29;;;;;;;5.97;1.50;;;10.00;83.30;;;;;;4981649;28;20082;-51
2022/11/04 05:47:59;;;;;;;3.27;1.53;;;10.00;83.30;;;;;;4988865;28;20026;-56
2022/11/04 05:50:25;;;;;;;8.65;1.50;;;10.00;83.40;;;;;;4989204;28;20057;-56
2022/11/04 05:52:51;;;;;;;4.13;2.23;;;10.00;83.20;;;;;;4991929;28;20506;-55
2022/11/04 05:55:16;;;;;;;7.20;2.77;;;10.10;83.00;;;;;;4992646;28;20046;-48
2022/11/04 05:57:42;;;;;;;17.03;4.13;;;10.10;83.10;;;;;;4986120;28;20022;-48
2022/11/04 06:00:09;;;;;;;6.07;2.03;;;10.10;83.00;;;;;;4983454;28;20034;-49
2022/11/04 06:02:35;;;;;;;1.95;1.30;;;10.10;82.80;;;;;;4982974;28;20029;-49
2022/11/04 06:05:01;;;;;;;5.50;1.77;;;10.10;82.60;;;;;;4986383;28;20030;-49
2022/11/04 06:07:26;;;;;;;9.77;1.97;;;10.00;82.60;;;;;;4986883;28;20137;-48
2022/11/04 06:09:52;;;;;;;8.73;2.00;;;10.00;82.50;;;;;;4987867;28;20146;-50
2022/11/04 06:12:18;;;;;;;3.20;1.87;;;10.00;83.10;;;;;;4991574;28;20213;-52
2022/11/04 06:14:43;;;;;;;9.67;2.00;;;10.00;82.80;;;;;;4988557;28;20560;-48
2022/11/04 06:17:17;;;;;;;3.20;1.70;;;10.00;83.10;;;;;;4992222;28;20026;-45
2022/11/04 06:19:43;;;;;;;10.30;1.90;;;10.00;83.20;;;;;;4983752;28;20286;-55
2022/11/04 06:22:11;;;;;;;3.37;2.30;;;10.10;83.10;;;;;;4988463;28;20483;-55
2022/11/04 06:24:37;;;;;;;5.53;2.10;;;10.10;83.50;;;;;;4991071;28;20297;-57
2022/11/04 06:27:03;;;;;;;6.67;2.63;;;10.10;83.10;;;;;;4986570;28;20118;-52
2022/11/04 06:29:28;;;;;;;10.32;2.20;;;10.10;83.10;;;;;;4986200;28;20058;-52
2022/11/04 06:31:54;;;;;;;6.60;2.20;;;10.10;83.30;;;;;;4979318;28;20084;-53
2022/11/04 06:34:19;;;;;;;12.70;2.93;;;10.10;83.20;;;;;;4990527;28;20072;-55
2022/11/04 06:36:45;;;;;;;4.53;1.97;;;10.10;83.10;;;;;;4991449;28;20065;-54
2022/11/04 06:39:11;;;;;;;4.90;2.07;;;10.10;82.60;;;;;;4990740;28;20068;-55
2022/11/04 06:41:37;;;;;;;6.40;2.22;;;10.00;82.90;;;;;;4988434;28;20084;-50
2022/11/04 06:44:02;;;;;;;6.03;2.50;;;10.10;82.70;;;;;;4984118;28;20442;-53
2022/11/04 06:46:31;;;;;;;5.73;2.40;;;10.20;82.60;;;;;;4987859;28;20026;-52
2022/11/04 06:48:56;;;;;;;9.10;2.22;;;10.20;84.10;;;;;;4981769;28;20273;-53
2022/11/04 06:51:23;;;;;;;15.87;2.37;;;10.20;83.50;;;;;;4989734;28;20046;-53
2022/11/04 06:53:49;;;;;;;;;;;10.20;83.30;;;;;;4986064;28;20046;-55
2022/11/04 06:56:14;;;;;;;12.95;2.70;;;10.20;83.50;;;;;;4986000;28;19937;-54
2022/11/04 06:58:40;;;;;;;6.37;2.27;;;10.30;83.70;;;;;;4991258;28;20034;-54
2022/11/04 07:01:05;;;;;;;4.93;2.50;;;10.30;83.70;;;;;;4986198;28;20023;-50
2022/11/04 07:03:31;;;;;;;3.97;1.80;;;10.40;84.00;;;;;;4991213;28;20141;-53
2022/11/04 07:05:57;;;;;;;13.87;2.30;;;10.40;83.80;;;;;;4983622;28;20121;-49
2022/11/04 07:08:22;;;;;;;5.03;1.43;;;10.40;82.80;;;;;;4994116;28;20498;-50
2022/11/04 07:10:48;;;;;;;2.93;1.40;;;10.50;82.40;;;;;;4985322;28;20069;-51
2022/11/04 07:13:15;;;;;;;9.70;1.40;;;10.50;82.50;;;;;;4990197;28;20821;-51
2022/11/04 07:15:41;;;;;;;4.53;1.30;;;10.50;82.30;;;;;;4997770;28;20045;-53
2022/11/04 07:18:06;;;;;;;6.23;1.53;;;10.60;81.80;;;;;;4984796;28;20038;-54
2022/11/04 07:20:35;;;;;;;2.07;1.07;;;10.60;81.70;;;;;;4988447;28;20553;-46
2022/11/04 07:23:01;;;;;;;7.72;1.75;;;10.70;82.00;;;;;;4987284;28;20026;-47
2022/11/04 07:25:27;;;;;;;4.93;1.37;;;10.70;81.20;;;;;;4988638;28;20025;-50
2022/11/04 07:27:53;;;;;;;8.43;1.65;;;10.80;81.40;;;;;;4985645;28;20034;-54
2022/11/04 07:30:21;;;;;;;5.03;1.53;;;10.80;81.40;;;;;;4986328;28;20398;-51
2022/11/04 07:32:47;;;;;;;3.05;1.10;;;10.80;79.80;;;;;;4988164;28;20615;-54
2022/11/04 07:35:13;;;;;;;6.87;1.20;;;10.80;79.60;;;;;;4990769;28;20068;-50
2022/11/04 07:37:38;;;;;;;8.10;1.33;;;10.90;80.20;;;;;;4985532;28;20030;-54
2022/11/04 07:40:05;;;;;;;8.87;1.27;;;10.90;80.20;;;;;;4984058;28;20434;-52
2022/11/04 07:42:31;;;;;;;;;;;10.90;80.40;;;;;;4985743;28;20026;-56
2022/11/04 07:44:56;;;;;;;7.65;1.15;;;11.00;79.90;;;;;;4985705;28;19992;-52
2022/11/04 07:47:22;;;;;;;5.33;1.13;;;11.00;80.30;;;;;;4982928;28;20350;-50
2022/11/04 07:49:47;;;;;;;4.37;1.00;;;11.00;80.60;;;;;;4981130;28;20121;-50
2022/11/04 07:52:13;;;;;;;10.37;1.60;;;11.00;79.70;;;;;;4983738;28;20425;-48
2022/11/04 07:54:39;;;;;;;5.80;1.27;;;11.00;79.70;;;;;;4982939;28;20510;-49
2022/11/04 07:57:04;;;;;;;14.43;1.53;;;11.00;80.00;;;;;;4985462;28;21151;-49
2022/11/04 07:59:30;;;;;;;5.13;1.07;;;11.10;80.20;;;;;;4984997;28;20026;-50
2022/11/04 08:01:55;;;;;;;6.53;1.13;;;11.10;79.30;;;;;;4984342;28;20038;-54
2022/11/04 08:04:21;;;;;;;4.23;1.23;;;11.20;79.00;;;;;;4985625;28;20671;-54
2022/11/04 08:06:47;;;;;;;3.47;1.40;;;11.30;79.60;;;;;;4986529;28;20027;-54
2022/11/04 08:09:12;;;;;;;4.13;1.37;;;11.30;78.80;;;;;;4986254;28;20035;-50
2022/11/04 08:11:38;;;;;;;6.73;1.20;;;11.30;78.10;;;;;;4982081;28;20507;-48
2022/11/04 08:14:04;;;;;;;7.00;1.08;;;11.40;77.20;;;;;;4983575;28;20049;-52
2022/11/04 08:16:30;;;;;;;3.03;1.00;;;11.40;77.00;;;;;;4986976;28;20034;-55
2022/11/04 08:19:00;;;;;;;6.07;1.33;;;11.50;75.10;;;;;;4988567;28;20101;-46
2022/11/04 08:21:28;;;;;;;6.53;1.17;;;11.40;72.70;;;;;;4988193;28;20046;-51
2022/11/04 08:23:54;;;;;;;12.32;2.75;;;11.40;73.90;;;;;;4984264;28;20031;-48
2022/11/04 08:26:22;;;;;;;3.63;1.20;;;11.40;76.10;;;;;;4989547;28;20479;-50
2022/11/04 08:28:48;;;;;;;5.97;1.40;;;11.40;74.90;;;;;;4988056;28;20030;-56
2022/11/04 08:31:25;;;;;;;7.32;1.20;;;11.40;71.10;;;;;;4984747;28;20030;-48
2022/11/04 08:33:52;;;;;;;5.25;1.30;;;11.40;71.00;;;;;;4983640;28;20046;-47
2022/11/04 08:36:24;;;;;;;8.70;1.35;;;11.40;71.60;;;;;;4989193;28;20026;-48
2022/11/04 08:38:51;;;;;;;5.20;1.08;;;11.40;73.50;;;;;;4985975;28;20034;-52
2022/11/04 08:41:19;;;;;;;3.80;1.10;;;11.40;72.30;;;;;;4988018;28;20023;-54
2022/11/04 08:43:45;;;;;;;7.47;1.55;;;11.40;73.90;;;;;;4987564;28;20101;-51
2022/11/04 08:46:12;;;;;;;7.00;1.45;;;11.40;73.40;;;;;;4988893;28;20023;-50
2022/11/04 08:48:39;;;;;;;4.07;1.05;;;11.40;74.00;;;;;;4985970;28;21675;-52
2022/11/04 08:51:11;;;;;;;5.55;1.20;;;11.50;75.50;;;;;;4983476;28;20031;-52
2022/11/04 08:53:37;;;;;;;3.38;1.10;;;11.50;75.90;;;;;;4987187;28;20398;-54
2022/11/04 08:56:11;;;;;;;2.70;1.10;;;11.50;75.70;;;;;;4984283;28;20046;-48
2022/11/04 08:58:37;;;;;;;9.43;1.65;;;11.50;74.40;;;;;;4984446;28;20482;-56
2022/11/04 09:01:04;;;;;;;2.93;1.10;;;11.60;77.30;;;;;;4985504;28;20026;-51
2022/11/04 09:03:31;;;;;;;3.28;1.10;;;11.50;73.90;;;;;;4976045;28;20044;-54
2022/11/04 09:05:56;;;;;;;5.13;1.77;;;11.50;76.00;;;;;;4987849;28;20042;-56
2022/11/04 09:08:22;;;;;;;5.70;1.83;;;11.60;76.20;;;;;;4988863;28;20056;-48
2022/11/04 09:10:48;;;;;;;7.60;1.87;;;11.50;77.10;;;;;;4988239;28;20026;-50
2022/11/04 09:13:14;;;;;;;2.60;1.10;;;11.50;76.90;;;;;;4988420;28;20129;-49
2022/11/04 09:15:40;;;;;;;;;;;11.50;76.10;;;;;;4985406;28;20572;-52
2022/11/04 09:18:06;;;;;;;8.23;1.08;;;11.50;74.00;;;;;;4989471;28;19949;-52
2022/11/04 09:20:33;;;;;;;5.30;1.10;;;11.50;74.90;;;;;;4986508;28;20045;-48
2022/11/04 09:22:58;;;;;;;2.50;0.90;;;11.60;75.60;;;;;;4986884;28;20488;-47
2022/11/04 09:25:24;;;;;;;3.30;1.20;;;11.50;75.50;;;;;;4985229;28;20225;-47
2022/11/04 09:27:50;;;;;;;7.68;1.55;;;11.50;76.40;;;;;;4988068;28;20019;-50
2022/11/04 09:30:16;;;;;;;10.90;1.43;;;11.50;78.00;;;;;;4988229;28;20068;-48
2022/11/04 09:32:42;;;;;;;2.72;1.05;;;11.40;77.60;;;;;;4983190;28;20038;-50
2022/11/04 09:35:08;;;;;;;6.10;1.57;;;11.40;77.80;;;;;;4987085;28;20050;-47
2022/11/04 09:37:34;;;;;;;5.50;1.48;;;11.30;76.80;;;;;;4988971;28;20041;-53
2022/11/04 09:39:59;;;;;;;11.00;1.87;;;11.20;78.20;;;;;;4986263;28;20038;-49
2022/11/04 09:42:59;;;;;;;3.70;1.67;;;11.20;78.90;;;;;;4982111;28;20080;-57
2022/11/04 09:45:27;;;;;;;4.30;1.35;;;11.10;79.70;;;;;;4982400;28;20023;-53
2022/11/04 09:48:02;;;;;;;4.03;1.23;;;11.00;80.60;;;;;;4986861;28;20037;-53
2022/11/04 09:50:54;;;;;;;4.40;1.23;;;10.90;80.00;;;;;;4987390;28;20026;-54
2022/11/04 09:53:36;;;;;;;3.80;1.27;;;10.90;81.50;;;;;;4984541;28;20053;-47
2022/11/04 09:56:13;;;;;;;6.72;1.45;;;10.80;82.30;;;;;;4985402;28;20773;-53
2022/11/04 09:58:39;;;;;;;2.67;1.75;;;10.80;83.20;;;;;;4987190;28;20136;-55
2022/11/04 10:01:26;;;;;;;4.83;1.30;;;10.70;82.80;;;;;;4987647;28;20828;-49
2022/11/04 10:03:58;;;;;;;6.95;1.77;;;10.80;83.60;;;;;;4986263;28;20063;-56
2022/11/04 10:06:41;;;;;;;3.95;1.45;;;10.70;84.00;;;;;;4984255;28;20058;-50
2022/11/04 10:09:21;;;;;;;3.92;1.85;;;10.70;84.40;;;;;;4983643;28;20042;-48
2022/11/04 10:12:09;;;;;;;6.85;1.80;;;10.80;84.30;;;;;;4984489;28;20031;-52
2022/11/04 10:14:44;;;;;;;4.65;1.40;;;10.70;84.10;;;;;;4987094;28;20061;-55
2022/11/04 10:17:28;;;;;;;2.58;1.20;;;10.80;83.20;;;;;;4984826;28;20038;-50
2022/11/04 10:20:11;;;;;;;3.17;1.30;;;10.80;84.30;;;;;;4983892;28;20084;-50
2022/11/04 10:22:57;;;;;;;5.15;1.38;;;10.80;83.60;;;;;;4986610;28;20105;-47
2022/11/04 10:25:29;;;;;;;6.07;1.98;;;10.70;83.90;;;;;;4985875;28;20511;-50
2022/11/04 10:27:55;;;;;;;10.50;1.88;;;10.80;84.00;;;;;;4984711;28;20033;-46
2022/11/04 10:30:23;;;;;;;5.07;1.60;;;10.80;84.20;;;;;;4987076;28;20062;-55
2022/11/04 10:33:32;;;;;;;3.55;1.30;;;10.80;83.10;;;;;;4986978;28;20031;-50
2022/11/04 10:36:02;;;;;;;5.03;1.20;;;10.90;83.40;;;;;;4979673;28;20058;-49
2022/11/04 10:38:35;;;;;;;8.75;1.10;;;10.80;83.60;;;;;;4987054;28;20030;-47
2022/11/04 10:41:01;;;;;;;7.25;2.10;;;10.80;83.30;;;;;;4983841;28;20093;-48
2022/11/04 10:43:30;;;;;;;2.72;1.17;;;10.90;83.90;;;;;;4985999;28;20033;-55
2022/11/04 10:46:16;;;;;;;5.97;1.20;;;10.90;81.70;;;;;;4986073;28;20140;-50
2022/11/04 10:48:49;;;;;;;11.45;1.63;;;10.80;79.20;;;;;;4982238;28;20418;-52
2022/11/04 10:51:20;;;;;;;9.05;2.53;;;10.80;80.00;;;;;;4983558;28;21467;-48
2022/11/04 10:53:53;;;;;;;4.20;1.45;;;10.80;80.30;;;;;;4983451;28;20033;-52
2022/11/04 10:56:45;;;;;;;3.97;1.70;;;10.90;79.50;;;;;;4973456;28;20406;-46
2022/11/04 10:59:20;;;;;;;3.60;1.10;;;11.00;80.30;;;;;;4984081;28;20042;-51
2022/11/04 11:01:55;;;;;;;3.88;1.40;;;11.10;79.00;;;;;;4984639;28;20049;-48
2022/11/04 11:04:33;;;;;;;2.85;1.23;;;11.10;79.40;;;;;;4981821;28;20122;-49
2022/11/04 11:07:01;;;;;;;3.10;1.17;;;11.30;81.00;;;;;;4984549;28;20503;-50
2022/11/04 11:09:33;;;;;;;3.78;1.70;;;11.40;79.80;;;;;;4987367;28;20045;-49
2022/11/04 11:12:00;;;;;;;7.65;2.30;;;11.40;79.80;;;;;;4986167;28;20045;-48
2022/11/04 11:14:29;;;;;;;4.68;1.08;;;11.50;78.80;;;;;;4982627;28;20540;-51
2022/11/04 11:16:57;;;;;;;6.65;2.00;;;11.50;77.80;;;;;;4981573;28;20026;-53
2022/11/04 11:19:24;;;;;;;6.90;1.70;;;11.60;78.10;;;;;;4983410;28;20468;-49
2022/11/04 11:21:55;;;;;;;3.03;1.52;;;11.70;79.60;;;;;;4986182;28;20049;-57
2022/11/04 11:24:25;;;;;;;3.33;1.00;;;11.60;78.10;;;;;;4983449;28;20490;-56
2022/11/04 11:26:56;;;;;;;8.40;1.58;;;11.60;78.10;;;;;;4981453;28;20118;-54
2022/11/04 11:29:27;;;;;;;3.15;1.20;;;11.80;77.50;;;;;;4986400;28;20524;-54
2022/11/04 11:31:55;;;;;;;2.53;1.10;;;11.90;79.50;;;;;;4980293;28;20042;-52
2022/11/04 11:34:45;;;;;;;3.55;1.00;;;12.00;76.70;;;;;;4982937;28;20035;-51
2022/11/04 11:37:24;;;;;;;6.65;1.20;;;12.00;76.80;;;;;;4983866;28;20034;-60
2022/11/04 11:39:50;;;;;;;4.50;1.25;;;12.10;75.20;;;;;;4984803;28;20023;-48
2022/11/04 11:42:18;;;;;;;1.65;1.10;;;12.20;75.00;;;;;;4985450;28;20565;-50
2022/11/04 11:44:52;;;;;;;3.55;1.13;;;12.40;73.10;;;;;;4982927;28;20085;-47
2022/11/04 11:47:40;;;;;;;8.48;1.88;;;12.40;74.60;;;;;;4981784;28;20517;-49
2022/11/04 11:50:18;;;;;;;4.55;1.23;;;12.50;72.10;;;;;;4984832;28;20070;-50
2022/11/04 11:52:48;;;;;;;2.80;1.10;;;12.50;72.40;;;;;;4985435;28;20030;-48
2022/11/04 11:55:33;;;;;;;4.75;1.38;;;12.70;74.80;;;;;;4979344;28;20070;-48
2022/11/04 11:58:17;;;;;;;3.65;1.27;;;12.80;71.10;;;;;;4987463;28;20505;-49
2022/11/04 12:00:51;;;;;;;5.78;1.38;;;12.80;70.60;;;;;;4986008;28;20036;-49
2022/11/04 12:03:29;;;;;;;3.22;1.00;;;12.90;72.70;;;;;;4988599;28;20018;-47
2022/11/04 12:06:28;;;;;;;3.22;1.00;;;12.80;68.70;;;;;;4989351;28;20049;-49
2022/11/04 12:09:20;;;;;;;4.25;1.35;;;12.90;69.70;;;;;;4979944;28;20080;-47
2022/11/04 12:11:58;;;;;;;5.00;1.33;;;13.00;70.50;;;;;;4989286;28;20054;-48
2022/11/04 12:14:39;;;;;;;2.67;1.25;;;13.20;71.20;;;;;;4989174;28;20053;-47
2022/11/04 12:17:10;;;;;;;5.53;1.25;;;13.40;70.90;;;;;;4988599;28;20049;-47
2022/11/04 12:19:49;;;;;;;6.03;1.88;;;13.50;68.90;;;;;;4989767;28;20038;-48
2022/11/04 12:22:29;;;;;;;3.72;1.40;;;13.40;70.80;;;;;;4987039;28;20058;-49
2022/11/04 12:25:05;;;;;;;4.30;1.42;;;13.40;72.50;;;;;;4987874;28;21046;-48
2022/11/04 12:27:39;;;;;;;2.63;1.48;;;13.50;70.50;;;;;;4989841;28;20446;-48
2022/11/04 12:30:09;;;;;;;2.50;1.30;;;13.50;72.30;;;;;;4984804;28;20034;-50
2022/11/04 12:32:41;;;;;;;2.38;1.17;;;13.50;72.30;;;;;;4988516;28;20022;-47
2022/11/04 12:35:15;;;;;;;4.95;1.23;;;13.40;69.10;;;;;;4988012;28;20058;-47
2022/11/04 12:38:22;;;;;;;3.22;2.30;;;13.40;68.70;;;;;;4988059;28;20023;-48
2022/11/04 12:41:03;;;;;;;9.55;1.25;;;13.30;72.60;;;;;;4985488;28;20081;-47
2022/11/04 12:43:53;;;;;;;4.95;1.23;;;13.50;72.40;;;;;;4988695;28;20030;-51
2022/11/04 12:46:46;;;;;;;4.35;1.10;;;13.70;70.60;;;;;;4986598;28;20030;-50
2022/11/04 12:49:35;;;;;;;2.55;0.90;;;13.80;71.20;;;;;;4985983;28;20510;-49
2022/11/04 12:52:22;;;;;;;3.45;1.10;;;13.90;71.60;;;;;;4988394;28;20494;-48
2022/11/04 12:54:57;;;;;;;4.23;1.10;;;13.80;70.60;;;;;;4986463;28;20070;-51
2022/11/04 12:57:50;;;;;;;2.75;1.20;;;13.80;72.30;;;;;;4987739;28;20492;-49
2022/11/04 13:00:20;;;;;;;5.10;1.30;;;13.70;73.10;;;;;;4984442;28;20402;-51
2022/11/04 13:03:04;;;;;;;2.08;1.02;;;13.60;72.80;;;;;;4987101;28;20073;-50
2022/11/04 13:06:09;;;;;;;17.17;2.25;;;13.50;72.40;;;;;;4985502;28;20038;-53
2022/11/04 13:08:51;;;;;;;5.20;1.75;;;13.40;72.10;;;;;;4972453;28;20512;-50
2022/11/04 13:11:25;;;;;;;4.95;1.77;;;13.30;73.50;;;;;;4986008;28;20038;-52
2022/11/04 13:14:01;;;;;;;7.28;2.40;;;13.20;73.00;;;;;;4989277;28;20026;-51
2022/11/04 13:16:28;;;;;;;15.73;3.60;;;13.30;74.80;;;;;;4985548;28;20037;-47
2022/11/04 13:18:55;;;;;;;5.47;1.88;;;13.60;74.70;;;;;;4987498;28;20034;-50
2022/11/04 13:21:26;;;;;;;4.40;1.55;;;14.10;74.00;;;;;;4985640;28;20030;-53
2022/11/04 13:24:14;;;;;;;3.20;1.67;;;14.20;73.50;;;;;;4985722;28;20026;-50
2022/11/04 13:26:39;;;;;;;4.28;1.52;;;14.10;70.90;;;;;;4988079;28;20042;-50
2022/11/04 13:29:11;;;;;;;3.80;1.60;;;13.80;71.10;;;;;;4987807;28;20109;-50
2022/11/04 13:31:53;;;;;;;6.25;1.45;;;13.70;72.70;;;;;;4986106;28;20105;-51
2022/11/04 13:34:44;;;;;;;4.95;1.23;;;13.80;71.50;;;;;;4987159;28;20053;-50
2022/11/04 13:37:38;;;;;;;3.80;1.50;;;13.90;72.80;;;;;;4987030;28;20034;-47
2022/11/04 13:40:18;;;;;;;8.48;2.13;;;13.90;72.90;;;;;;4983112;28;20038;-51